Navig8 Sky — V7ST2 — position and weather

sailwx.info

Track history (hours):
 
Tides and Currents Weather Stations Pressure Air Temp Water Temp Dewpoint Dewpoint Depression Visibility Wind Speed Wind Dir Waves Ship Positions

Navig8 Sky

Last reported at 2017-Sep-16 17:37 UTC. Time now 2017-Nov-22 05:40 UTC.
Position N 34°16' E 010°10'.
Warning: this ship's position is months out of date.

Length 153 m; draft 6.8 m.

Type: Tanker. MMSI: 538006891.

Date/timePositionNaut miles runAvg speedWind from/ knotsBaromVisibWave heightAir tempDewpointWater temp
2017-Sep-16 17:37N 34°16' E 010°10'0 0.0
2017-Sep-16 17:28N 34°16' E 010°10'0 0.0
2017-Sep-16 16:58N 34°16' E 010°10'0 0.0
2017-Sep-16 16:28N 34°16' E 010°10'0 0.0
2017-Sep-16 15:40N 34°16' E 010°10'0 0.0
2017-Sep-16 15:28N 34°16' E 010°10'0 0.0
2017-Sep-16 14:58N 34°16' E 010°10'0 0.0
2017-Sep-16 14:28N 34°16' E 010°10'0 0.0
2017-Sep-16 13:46N 34°16' E 010°10'0 0.0
2017-Sep-16 13:28N 34°16' E 010°10'0 0.0
2017-Sep-16 12:58N 34°16' E 010°10'0 0.0
2017-Sep-16 12:28N 34°16' E 010°10'0 0.0
2017-Sep-16 11:58N 34°16' E 010°10'0 0.0
2017-Sep-16 11:22N 34°16' E 010°10'0 0.0
2017-Sep-16 10:55N 34°16' E 010°10'0 0.0
2017-Sep-16 10:28N 34°16' E 010°10'0 0.1
2017-Sep-16 09:58N 34°16' E 010°10'0 0.0
2017-Sep-16 09:28N 34°16' E 010°10'0 0.0
2017-Sep-16 08:58N 34°16' E 010°10'0 0.0
2017-Sep-16 08:25N 34°16' E 010°10'0 0.1
2017-Sep-16 07:46N 34°16' E 010°10'0 0.1
2017-Sep-16 07:28N 34°16' E 010°10'0 0.0
2017-Sep-16 05:28N 34°16' E 010°10'0 0.0
2017-Sep-16 04:52N 34°16' E 010°10'0 0.0
2017-Sep-16 04:28N 34°16' E 010°10'0 0.1
2017-Sep-16 03:49N 34°16' E 010°10'0 0.1
2017-Sep-16 02:22N 34°16' E 010°10'0 0.1
2017-Sep-16 01:46N 34°16' E 010°10'0 0.0
2017-Sep-16 01:19N 34°16' E 010°10'0 0.0
2017-Sep-16 00:52N 34°16' E 010°10'0 0.0
2017-Sep-15 22:16N 34°16' E 010°10'0 0.0
2017-Sep-15 21:55N 34°16' E 010°10'0 0.0
2017-Sep-15 21:28N 34°16' E 010°10'0 0.1
2017-Sep-15 20:58N 34°16' E 010°10'0 0.0
2017-Sep-15 20:28N 34°16' E 010°10'0 0.0
2017-Sep-15 19:58N 34°16' E 010°10'0 0.0
2017-Sep-15 19:28N 34°16' E 010°10'0 0.0
2017-Sep-15 18:43N 34°16' E 010°10'0 0.1
2017-Sep-15 18:28N 34°16' E 010°10'0 0.0
2017-Sep-15 17:58N 34°16' E 010°10'20 1.8
2017-Sep-15 06:28N 34°10' E 010°33'511.7
2017-Sep-15 06:00N 34°12' E 010°39'1411.6
2017-Sep-15 04:47N 34°19' E 010°55'311.4
2017-Sep-15 04:30N 34°20' E 010°58'611.2
2017-Sep-15 04:00N 34°22' E 011°04'611.0
2017-Sep-15 03:30N 34°25' E 011°10'611.2
2017-Sep-15 03:00N 34°27' E 011°16'911.0
2017-Sep-15 02:12N 34°32' E 011°26'210.8
2017-Sep-15 02:00N 34°33' E 011°28'911.4
2017-Sep-15 01:11N 34°37' E 011°38'211.3
2017-Sep-15 01:00N 34°38' E 011°40'611.2
2017-Sep-15 00:30N 34°40' E 011°46'611.6
2017-Sep-15 00:00N 34°43' E 011°52'611.3
2017-Sep-14 23:30N 34°46' E 011°59'611.1
2017-Sep-14 23:00N 34°51' E 012°02'611.2
2017-Sep-14 22:30N 34°56' E 012°05'611.1
2017-Sep-14 22:00N 35°01' E 012°04'611.6
2017-Sep-14 21:30N 35°07' E 012°04'611.6
2017-Sep-14 21:00N 35°12' E 012°02'611.5
2017-Sep-14 20:30N 35°17' E 011°58'611.3
2017-Sep-14 20:00N 35°22' E 011°54'611.7
2017-Sep-14 19:30N 35°28' E 011°52'611.4
2017-Sep-14 19:00N 35°33' E 011°50'611.2
2017-Sep-14 18:30N 35°39' E 011°48'611.2
2017-Sep-14 18:00N 35°44' E 011°46'611.1
2017-Sep-14 17:30N 35°49' E 011°45'611.2
2017-Sep-14 17:00N 35°55' E 011°43'511.1
2017-Sep-14 16:30N 36°00' E 011°41'711.0
2017-Sep-14 15:52N 36°07' E 011°39'810.9
2017-Sep-14 15:06N 36°15' E 011°36'110.6
2017-Sep-14 15:00N 36°16' E 011°35'510.6
2017-Sep-14 14:30N 36°21' E 011°34'6012.2
2017-Sep-14 09:36N 37°19' E 011°16'111.3
2017-Sep-14 09:30N 37°20' E 011°15'611.7
2017-Sep-14 09:00N 37°23' E 011°08'1011.7
2017-Sep-14 08:09N 37°26' E 010°57'4912.3
2017-Sep-14 04:11N 37°33' E 009°56'412.4
2017-Sep-14 03:50N 37°34' E 009°50'512.7
2017-Sep-14 03:25N 37°34' E 009°44'512.6
2017-Sep-14 03:00N 37°35' E 009°37'36911.8
2017-Sep-12 19:52N 36°58' E 001°56'411.2
2017-Sep-12 19:30N 36°58' E 001°51'1011.0
2017-Sep-12 18:35N 36°56' E 001°39'210.7
2017-Sep-12 18:26N 36°56' E 001°37'510.7
2017-Sep-12 17:58N 36°55' E 001°31'15612.1
2017-Sep-12 05:06N 36°25' W 001°40'813.2
2017-Sep-12 04:29N 36°24' W 001°50'713.4
2017-Sep-12 03:58N 36°23' W 001°59'1313.2
2017-Sep-12 03:01N 36°21' W 002°14'313.1
2017-Sep-12 02:45N 36°20' W 002°19'313.1
2017-Sep-12 02:30N 36°20' W 002°23'13913.1
2017-Sep-11 15:51N 35°60' W 005°13'513.8
2017-Sep-11 15:30N 36°01' W 005°19'5 9.2
2017-Sep-11 15:00N 36°04' W 005°23'1 1.6
2017-Sep-11 14:26N 36°03' W 005°23'511.0
2017-Sep-11 14:01N 35°59' W 005°25'1713.5
2017-Sep-11 12:44N 35°53' W 005°45'3211.9
2017-Sep-11 10:03N 35°53' W 006°25'112.2
2017-Sep-11 09:58N 35°53' W 006°26'2111.6
2017-Sep-11 08:11N 35°58' W 006°51'313.5
2017-Sep-11 07:59N 35°58' W 006°54'714.3
2017-Sep-11 07:30N 36°00' W 007°02'712.7
2017-Sep-11 06:59N 36°02' W 007°10'511.1
2017-Sep-11 06:30N 36°04' W 007°16'611.0
2017-Sep-11 05:58N 36°06' W 007°23'510.7
2017-Sep-11 05:30N 36°07' W 007°29'610.6
2017-Sep-11 04:57N 36°09' W 007°36'510.8
2017-Sep-11 04:30N 36°10' W 007°42'510.9
2017-Sep-11 04:00N 36°12' W 007°48'711.3
2017-Sep-11 03:26N 36°14' W 007°56'511.2
2017-Sep-11 03:00N 36°15' W 008°01'611.2
2017-Sep-11 02:29N 36°17' W 008°08'611.4
2017-Sep-11 02:00N 36°18' W 008°15'611.5
2017-Sep-11 01:27N 36°20' W 008°22'511.4
2017-Sep-11 01:00N 36°22' W 008°28'611.7
2017-Sep-11 00:30N 36°24' W 008°35'612.0
2017-Sep-11 00:00N 36°25' W 008°43'912.1
2017-Sep-10 23:13N 36°28' W 008°54'311.9
2017-Sep-10 23:00N 36°28' W 008°57'612.2
2017-Sep-10 22:30N 36°30' W 009°04'612.3
2017-Sep-10 22:00N 36°32' W 009°12'612.1
2017-Sep-10 21:30N 36°35' W 009°19'612.6
2017-Sep-10 21:01N 36°39' W 009°24'912.2
2017-Sep-10 20:16N 36°46' W 009°31'311.9
2017-Sep-10 19:59N 36°49' W 009°33'612.9
2017-Sep-10 19:30N 36°55' W 009°35'612.5
2017-Sep-10 19:00N 37°01' W 009°38'712.3
2017-Sep-10 18:28N 37°07' W 009°41'612.4
2017-Sep-10 18:00N 37°12' W 009°44'612.4
2017-Sep-10 17:30N 37°18' W 009°48'612.2
2017-Sep-10 17:00N 37°23' W 009°52'612.2
2017-Sep-10 16:30N 37°28' W 009°56'1512.3
2017-Sep-10 15:17N 37°40' W 010°08'312.1
2017-Sep-10 15:00N 37°43' W 010°08'1212.3
2017-Sep-10 14:00N 37°55' W 010°08'612.8
2017-Sep-10 13:31N 38°02' W 010°08'612.5
2017-Sep-10 13:00N 38°08' W 010°08'612.3
2017-Sep-10 12:30N 38°14' W 010°07'612.5
2017-Sep-10 12:00N 38°20' W 010°07'612.2
2017-Sep-10 11:30N 38°26' W 010°05'612.5
2017-Sep-10 11:00N 38°33' W 010°05'612.2
2017-Sep-10 10:30N 38°39' W 010°06'612.6
2017-Sep-10 10:01N 38°45' W 010°07'713.0
2017-Sep-10 09:30N 38°51' W 010°07'713.1
2017-Sep-10 09:00N 38°58' W 010°07'613.0
2017-Sep-10 08:30N 39°04' W 010°06'613.0
2017-Sep-10 08:00N 39°11' W 010°07'612.4
2017-Sep-10 07:31N 39°17' W 010°07'713.8
2017-Sep-10 06:58N 39°25' W 010°06'1313.4
2017-Sep-10 05:59N 39°38' W 010°06'57411.9
2017-Sep-08 05:34N 48°43' W 005°56'110.8
2017-Sep-08 05:30N 48°44' W 005°56'810.9
2017-Sep-08 04:48N 48°51' W 005°50'610.0
2017-Sep-08 04:12N 48°55' W 005°44'510.0
2017-Sep-08 03:41N 48°58' W 005°38'1110.4
2017-Sep-08 02:39N 49°04' W 005°24'211.1
2017-Sep-08 02:29N 49°05' W 005°21'811.6
2017-Sep-08 01:48N 49°09' W 005°11'6813.0
2017-Sep-07 20:36N 49°42' W 003°40'211.3
2017-Sep-07 20:24N 49°43' W 003°37'511.4
2017-Sep-07 20:00N 49°46' W 003°31'611.0
2017-Sep-07 19:30N 49°48' W 003°24'510.7
2017-Sep-07 19:00N 49°51' W 003°16'510.6
2017-Sep-07 18:30N 49°54' W 003°09'511.0
2017-Sep-07 18:00N 49°56' W 003°02'611.4
2017-Sep-07 17:30N 49°58' W 002°54'611.4
2017-Sep-07 17:00N 49°60' W 002°45'612.1
2017-Sep-07 16:30N 50°01' W 002°36'1513.8
2017-Sep-07 15:26N 50°04' W 002°13'615.0
2017-Sep-07 15:01N 50°04' W 002°03'815.5
2017-Sep-07 14:31N 50°02' W 001°52'815.4
2017-Sep-07 14:00N 49°60' W 001°40'815.4
2017-Sep-07 13:31N 49°58' W 001°29'815.1
2017-Sep-07 13:01N 49°56' W 001°17'714.2
2017-Sep-07 12:30N 49°54' W 001°07'713.4
2017-Sep-07 12:00N 49°51' W 000°58'713.1
2017-Sep-07 11:30N 49°48' W 000°48'1811.7
2017-Sep-07 09:56N 49°40' W 000°22'4 9.6
2017-Sep-07 09:30N 49°38' W 000°17'0 0.6
2017-Sep-07 08:52N 49°38' W 000°16'0 0.0
2017-Sep-07 08:28N 49°38' W 000°16'0 0.0
2017-Sep-07 07:58N 49°38' W 000°16'0 0.0
2017-Sep-07 07:28N 49°38' W 000°16'0 0.0
2017-Sep-07 06:58N 49°38' W 000°16'0 0.1
2017-Sep-07 06:28N 49°38' W 000°16'0 0.0
2017-Sep-07 05:58N 49°38' W 000°16'0 0.0
2017-Sep-07 03:07N 49°38' W 000°17'0 0.1
2017-Sep-07 02:52N 49°38' W 000°17'0 0.1
2017-Sep-07 02:25N 49°38' W 000°17'0 0.1
2017-Sep-07 01:46N 49°38' W 000°17'0 0.2
2017-Sep-07 01:04N 49°38' W 000°16'0 0.1
2017-Sep-07 00:58N 49°38' W 000°16'0 0.1
2017-Sep-07 00:28N 49°38' W 000°16'0 0.0
2017-Sep-06 23:58N 49°38' W 000°16'0 0.1
2017-Sep-06 23:28N 49°38' W 000°16'0 0.0
2017-Sep-06 22:58N 49°38' W 000°16'0 0.0
2017-Sep-06 22:28N 49°38' W 000°16'0 0.0
2017-Sep-06 21:58N 49°38' W 000°16'0 0.0
2017-Sep-06 21:28N 49°38' W 000°16'0 0.0
2017-Sep-06 20:58N 49°38' W 000°16'0 0.0
2017-Sep-06 20:28N 49°38' W 000°16'0 0.0
2017-Sep-06 19:52N 49°38' W 000°16'0 0.0
2017-Sep-06 19:28N 49°38' W 000°16'0 0.1
2017-Sep-06 18:58N 49°38' W 000°16'0 0.0
2017-Sep-06 18:28N 49°38' W 000°16'0 0.0
2017-Sep-06 17:58N 49°38' W 000°16'  
Track history (hours):
 
Tides and Currents Weather Stations Pressure Air Temp Water Temp Dewpoint Dewpoint Depression Visibility Wind Speed Wind Dir Waves Ship Positions

Navig8 Sky

Last reported at 2017-Sep-16 17:37 UTC. Time now 2017-Nov-22 05:40 UTC.
Position N 34°16' E 010°10'.
Warning: this ship's position is months out of date.

Length 153 m; draft 6.8 m.

Type: Tanker. MMSI: 538006891.

Date/timePositionNaut miles runAvg speedWind from/ knotsBaromVisibWave heightAir tempDewpointWater temp
2017-Sep-16 17:37N 34°16' E 010°10'0 0.0
2017-Sep-16 17:28N 34°16' E 010°10'0 0.0
2017-Sep-16 16:58N 34°16' E 010°10'0 0.0
2017-Sep-16 16:28N 34°16' E 010°10'0 0.0
2017-Sep-16 15:40N 34°16' E 010°10'0 0.0
2017-Sep-16 15:28N 34°16' E 010°10'0 0.0
2017-Sep-16 14:58N 34°16' E 010°10'0 0.0
2017-Sep-16 14:28N 34°16' E 010°10'0 0.0
2017-Sep-16 13:46N 34°16' E 010°10'0 0.0
2017-Sep-16 13:28N 34°16' E 010°10'0 0.0
2017-Sep-16 12:58N 34°16' E 010°10'0 0.0
2017-Sep-16 12:28N 34°16' E 010°10'0 0.0
2017-Sep-16 11:58N 34°16' E 010°10'0 0.0
2017-Sep-16 11:22N 34°16' E 010°10'0 0.0
2017-Sep-16 10:55N 34°16' E 010°10'0 0.0
2017-Sep-16 10:28N 34°16' E 010°10'0 0.1
2017-Sep-16 09:58N 34°16' E 010°10'0 0.0
2017-Sep-16 09:28N 34°16' E 010°10'0 0.0
2017-Sep-16 08:58N 34°16' E 010°10'0 0.0
2017-Sep-16 08:25N 34°16' E 010°10'0 0.1
2017-Sep-16 07:46N 34°16' E 010°10'0 0.1
2017-Sep-16 07:28N 34°16' E 010°10'0 0.0
2017-Sep-16 05:28N 34°16' E 010°10'0 0.0
2017-Sep-16 04:52N 34°16' E 010°10'0 0.0
2017-Sep-16 04:28N 34°16' E 010°10'0 0.1
2017-Sep-16 03:49N 34°16' E 010°10'0 0.1
2017-Sep-16 02:22N 34°16' E 010°10'0 0.1
2017-Sep-16 01:46N 34°16' E 010°10'0 0.0
2017-Sep-16 01:19N 34°16' E 010°10'0 0.0
2017-Sep-16 00:52N 34°16' E 010°10'0 0.0
2017-Sep-15 22:16N 34°16' E 010°10'0 0.0
2017-Sep-15 21:55N 34°16' E 010°10'0 0.0
2017-Sep-15 21:28N 34°16' E 010°10'0 0.1
2017-Sep-15 20:58N 34°16' E 010°10'0 0.0
2017-Sep-15 20:28N 34°16' E 010°10'0 0.0
2017-Sep-15 19:58N 34°16' E 010°10'0 0.0
2017-Sep-15 19:28N 34°16' E 010°10'0 0.0
2017-Sep-15 18:43N 34°16' E 010°10'0 0.1
2017-Sep-15 18:28N 34°16' E 010°10'0 0.0
2017-Sep-15 17:58N 34°16' E 010°10'20 1.8
2017-Sep-15 06:28N 34°10' E 010°33'511.7
2017-Sep-15 06:00N 34°12' E 010°39'1411.6
2017-Sep-15 04:47N 34°19' E 010°55'311.4
2017-Sep-15 04:30N 34°20' E 010°58'611.2
2017-Sep-15 04:00N 34°22' E 011°04'611.0
2017-Sep-15 03:30N 34°25' E 011°10'611.2
2017-Sep-15 03:00N 34°27' E 011°16'911.0
2017-Sep-15 02:12N 34°32' E 011°26'210.8
2017-Sep-15 02:00N 34°33' E 011°28'911.4
2017-Sep-15 01:11N 34°37' E 011°38'211.3
2017-Sep-15 01:00N 34°38' E 011°40'611.2
2017-Sep-15 00:30N 34°40' E 011°46'611.6
2017-Sep-15 00:00N 34°43' E 011°52'611.3
2017-Sep-14 23:30N 34°46' E 011°59'611.1
2017-Sep-14 23:00N 34°51' E 012°02'611.2
2017-Sep-14 22:30N 34°56' E 012°05'611.1
2017-Sep-14 22:00N 35°01' E 012°04'611.6
2017-Sep-14 21:30N 35°07' E 012°04'611.6
2017-Sep-14 21:00N 35°12' E 012°02'611.5
2017-Sep-14 20:30N 35°17' E 011°58'611.3
2017-Sep-14 20:00N 35°22' E 011°54'611.7
2017-Sep-14 19:30N 35°28' E 011°52'611.4
2017-Sep-14 19:00N 35°33' E 011°50'611.2
2017-Sep-14 18:30N 35°39' E 011°48'611.2
2017-Sep-14 18:00N 35°44' E 011°46'611.1
2017-Sep-14 17:30N 35°49' E 011°45'611.2
2017-Sep-14 17:00N 35°55' E 011°43'511.1
2017-Sep-14 16:30N 36°00' E 011°41'711.0
2017-Sep-14 15:52N 36°07' E 011°39'810.9
2017-Sep-14 15:06N 36°15' E 011°36'110.6
2017-Sep-14 15:00N 36°16' E 011°35'510.6
2017-Sep-14 14:30N 36°21' E 011°34'6012.2
2017-Sep-14 09:36N 37°19' E 011°16'111.3
2017-Sep-14 09:30N 37°20' E 011°15'611.7
2017-Sep-14 09:00N 37°23' E 011°08'1011.7
2017-Sep-14 08:09N 37°26' E 010°57'4912.3
2017-Sep-14 04:11N 37°33' E 009°56'412.4
2017-Sep-14 03:50N 37°34' E 009°50'512.7
2017-Sep-14 03:25N 37°34' E 009°44'512.6
2017-Sep-14 03:00N 37°35' E 009°37'36911.8
2017-Sep-12 19:52N 36°58' E 001°56'411.2
2017-Sep-12 19:30N 36°58' E 001°51'1011.0
2017-Sep-12 18:35N 36°56' E 001°39'210.7
2017-Sep-12 18:26N 36°56' E 001°37'510.7
2017-Sep-12 17:58N 36°55' E 001°31'15612.1
2017-Sep-12 05:06N 36°25' W 001°40'813.2
2017-Sep-12 04:29N 36°24' W 001°50'713.4
2017-Sep-12 03:58N 36°23' W 001°59'1313.2
2017-Sep-12 03:01N 36°21' W 002°14'313.1
2017-Sep-12 02:45N 36°20' W 002°19'313.1
2017-Sep-12 02:30N 36°20' W 002°23'13913.1
2017-Sep-11 15:51N 35°60' W 005°13'513.8
2017-Sep-11 15:30N 36°01' W 005°19'5 9.2
2017-Sep-11 15:00N 36°04' W 005°23'1 1.6
2017-Sep-11 14:26N 36°03' W 005°23'511.0
2017-Sep-11 14:01N 35°59' W 005°25'1713.5
2017-Sep-11 12:44N 35°53' W 005°45'3211.9
2017-Sep-11 10:03N 35°53' W 006°25'112.2
2017-Sep-11 09:58N 35°53' W 006°26'2111.6
2017-Sep-11 08:11N 35°58' W 006°51'313.5
2017-Sep-11 07:59N 35°58' W 006°54'714.3
2017-Sep-11 07:30N 36°00' W 007°02'712.7
2017-Sep-11 06:59N 36°02' W 007°10'511.1
2017-Sep-11 06:30N 36°04' W 007°16'611.0
2017-Sep-11 05:58N 36°06' W 007°23'510.7
2017-Sep-11 05:30N 36°07' W 007°29'610.6
2017-Sep-11 04:57N 36°09' W 007°36'510.8
2017-Sep-11 04:30N 36°10' W 007°42'510.9
2017-Sep-11 04:00N 36°12' W 007°48'711.3
2017-Sep-11 03:26N 36°14' W 007°56'511.2
2017-Sep-11 03:00N 36°15' W 008°01'611.2
2017-Sep-11 02:29N 36°17' W 008°08'611.4
2017-Sep-11 02:00N 36°18' W 008°15'611.5
2017-Sep-11 01:27N 36°20' W 008°22'511.4
2017-Sep-11 01:00N 36°22' W 008°28'611.7
2017-Sep-11 00:30N 36°24' W 008°35'612.0
2017-Sep-11 00:00N 36°25' W 008°43'912.1
2017-Sep-10 23:13N 36°28' W 008°54'311.9
2017-Sep-10 23:00N 36°28' W 008°57'612.2
2017-Sep-10 22:30N 36°30' W 009°04'612.3
2017-Sep-10 22:00N 36°32' W 009°12'612.1
2017-Sep-10 21:30N 36°35' W 009°19'612.6
2017-Sep-10 21:01N 36°39' W 009°24'912.2
2017-Sep-10 20:16N 36°46' W 009°31'311.9
2017-Sep-10 19:59N 36°49' W 009°33'612.9
2017-Sep-10 19:30N 36°55' W 009°35'612.5
2017-Sep-10 19:00N 37°01' W 009°38'712.3
2017-Sep-10 18:28N 37°07' W 009°41'612.4
2017-Sep-10 18:00N 37°12' W 009°44'612.4
2017-Sep-10 17:30N 37°18' W 009°48'612.2
2017-Sep-10 17:00N 37°23' W 009°52'612.2
2017-Sep-10 16:30N 37°28' W 009°56'1512.3
2017-Sep-10 15:17N 37°40' W 010°08'312.1
2017-Sep-10 15:00N 37°43' W 010°08'1212.3
2017-Sep-10 14:00N 37°55' W 010°08'612.8
2017-Sep-10 13:31N 38°02' W 010°08'612.5
2017-Sep-10 13:00N 38°08' W 010°08'612.3
2017-Sep-10 12:30N 38°14' W 010°07'612.5
2017-Sep-10 12:00N 38°20' W 010°07'612.2
2017-Sep-10 11:30N 38°26' W 010°05'612.5
2017-Sep-10 11:00N 38°33' W 010°05'612.2
2017-Sep-10 10:30N 38°39' W 010°06'612.6
2017-Sep-10 10:01N 38°45' W 010°07'713.0
2017-Sep-10 09:30N 38°51' W 010°07'713.1
2017-Sep-10 09:00N 38°58' W 010°07'613.0
2017-Sep-10 08:30N 39°04' W 010°06'613.0
2017-Sep-10 08:00N 39°11' W 010°07'612.4
2017-Sep-10 07:31N 39°17' W 010°07'713.8
2017-Sep-10 06:58N 39°25' W 010°06'1313.4
2017-Sep-10 05:59N 39°38' W 010°06'57411.9
2017-Sep-08 05:34N 48°43' W 005°56'110.8
2017-Sep-08 05:30N 48°44' W 005°56'810.9
2017-Sep-08 04:48N 48°51' W 005°50'610.0
2017-Sep-08 04:12N 48°55' W 005°44'510.0
2017-Sep-08 03:41N 48°58' W 005°38'1110.4
2017-Sep-08 02:39N 49°04' W 005°24'211.1
2017-Sep-08 02:29N 49°05' W 005°21'811.6
2017-Sep-08 01:48N 49°09' W 005°11'6813.0
2017-Sep-07 20:36N 49°42' W 003°40'211.3
2017-Sep-07 20:24N 49°43' W 003°37'511.4
2017-Sep-07 20:00N 49°46' W 003°31'611.0
2017-Sep-07 19:30N 49°48' W 003°24'510.7
2017-Sep-07 19:00N 49°51' W 003°16'510.6
2017-Sep-07 18:30N 49°54' W 003°09'511.0
2017-Sep-07 18:00N 49°56' W 003°02'611.4
2017-Sep-07 17:30N 49°58' W 002°54'611.4
2017-Sep-07 17:00N 49°60' W 002°45'612.1
2017-Sep-07 16:30N 50°01' W 002°36'1513.8
2017-Sep-07 15:26N 50°04' W 002°13'615.0
2017-Sep-07 15:01N 50°04' W 002°03'815.5
2017-Sep-07 14:31N 50°02' W 001°52'815.4
2017-Sep-07 14:00N 49°60' W 001°40'815.4
2017-Sep-07 13:31N 49°58' W 001°29'815.1
2017-Sep-07 13:01N 49°56' W 001°17'714.2
2017-Sep-07 12:30N 49°54' W 001°07'713.4
2017-Sep-07 12:00N 49°51' W 000°58'713.1
2017-Sep-07 11:30N 49°48' W 000°48'1811.7
2017-Sep-07 09:56N 49°40' W 000°22'4 9.6
2017-Sep-07 09:30N 49°38' W 000°17'0 0.6
2017-Sep-07 08:52N 49°38' W 000°16'0 0.0
2017-Sep-07 08:28N 49°38' W 000°16'0 0.0
2017-Sep-07 07:58N 49°38' W 000°16'0 0.0
2017-Sep-07 07:28N 49°38' W 000°16'0 0.0
2017-Sep-07 06:58N 49°38' W 000°16'0 0.1
2017-Sep-07 06:28N 49°38' W 000°16'0 0.0
2017-Sep-07 05:58N 49°38' W 000°16'0 0.0
2017-Sep-07 03:07N 49°38' W 000°17'0 0.1
2017-Sep-07 02:52N 49°38' W 000°17'0 0.1
2017-Sep-07 02:25N 49°38' W 000°17'0 0.1
2017-Sep-07 01:46N 49°38' W 000°17'0 0.2
2017-Sep-07 01:04N 49°38' W 000°16'0 0.1
2017-Sep-07 00:58N 49°38' W 000°16'0 0.1
2017-Sep-07 00:28N 49°38' W 000°16'0 0.0
2017-Sep-06 23:58N 49°38' W 000°16'0 0.1
2017-Sep-06 23:28N 49°38' W 000°16'0 0.0
2017-Sep-06 22:58N 49°38' W 000°16'0 0.0
2017-Sep-06 22:28N 49°38' W 000°16'0 0.0
2017-Sep-06 21:58N 49°38' W 000°16'0 0.0
2017-Sep-06 21:28N 49°38' W 000°16'0 0.0
2017-Sep-06 20:58N 49°38' W 000°16'0 0.0
2017-Sep-06 20:28N 49°38' W 000°16'0 0.0
2017-Sep-06 19:52N 49°38' W 000°16'0 0.0
2017-Sep-06 19:28N 49°38' W 000°16'0 0.1
2017-Sep-06 18:58N 49°38' W 000°16'0 0.0
2017-Sep-06 18:28N 49°38' W 000°16'0 0.0
2017-Sep-06 17:58N 49°38' W 000°16'  

Dump ship's entire track history